Time;durP1;ratioP1;P1;durP2;ratioP2;P2;SDS_P1;SDS_P2;PMS_P1;PMS_P2;Temp;Humidity;BMP_temperature;BMP_pressure;BME280_temperature;BME280_humidity;BME280_pressure;Samples;Min_cycle;Max_cycle;Signal;HPM_P1;HPM_P2
2021/12/27 00:00:13;;;;;;;146.23;94.93;;;;;;;5.48;84.38;99290.16;5091446;28;20199;-57
2021/12/27 00:02:40;;;;;;;148.77;95.37;;;;;;;5.47;85.32;99286.75;5091611;28;20281;-57
2021/12/27 00:05:08;;;;;;;145.30;97.13;;;;;;;5.51;84.63;99300.44;5091676;28;20675;-57
2021/12/27 00:07:35;;;;;;;139.13;92.87;;;;;;;5.41;84.32;99278.91;5091312;28;20202;-57
2021/12/27 00:10:02;;;;;;;153.77;100.40;;;;;;;5.50;84.23;99284.28;5091498;28;20282;-57
2021/12/27 00:12:31;;;;;;;142.63;93.07;;;;;;;5.45;84.41;99290.06;5091124;28;20191;-57
2021/12/27 00:14:57;;;;;;;140.17;93.03;;;;;;;5.48;84.38;99306.31;5091524;28;20221;-57
2021/12/27 00:17:24;;;;;;;136.40;90.80;;;;;;;5.38;84.56;99300.03;5091408;28;20203;-57
2021/12/27 00:19:51;;;;;;;140.07;91.47;;;;;;;5.39;84.57;99295.81;5091455;28;20188;-57
2021/12/27 00:22:18;;;;;;;145.67;94.00;;;;;;;5.43;84.67;99309.53;5091377;28;20224;-57
2021/12/27 00:24:47;;;;;;;140.57;93.07;;;;;;;5.37;84.70;99312.75;5090955;28;20187;-57
2021/12/27 00:27:15;;;;;;;141.10;91.53;;;;;;;5.38;85.23;99310.22;5090909;28;20646;-57
2021/12/27 00:29:44;;;;;;;148.57;110.00;;;;;;;5.43;85.12;99312.94;5090596;28;20432;-57
2021/12/27 00:32:11;;;;;;;137.27;95.33;;;;;;;5.52;84.15;99300.50;5090842;28;20223;-57
2021/12/27 00:34:38;;;;;;;128.63;92.47;;;;;;;5.49;83.44;99294.44;5091059;28;20191;-57
2021/12/27 00:37:06;;;;;;;137.33;92.73;;;;;;;5.39;83.56;99288.16;5091078;28;20277;-57
2021/12/27 00:39:34;;;;;;;134.23;88.83;;;;;;;5.44;84.03;99293.44;5090844;28;20680;-57
2021/12/27 00:42:00;;;;;;;133.27;88.73;;;;;;;5.41;84.28;99294.22;5090874;28;20286;-57
2021/12/27 00:44:28;;;;;;;132.50;89.20;;;;;;;5.32;83.90;99284.56;5090666;28;20188;-57
2021/12/27 00:46:56;;;;;;;142.80;91.43;;;;;;;5.25;85.01;99290.25;5090626;28;20187;-57
2021/12/27 00:49:23;;;;;;;137.37;89.73;;;;;;;5.26;84.81;99275.84;5090767;28;20200;-57
2021/12/27 00:51:50;;;;;;;137.83;88.47;;;;;;;5.16;85.30;99274.69;5090694;28;20196;-57
2021/12/27 00:54:17;;;;;;;139.67;90.57;;;;;;;5.11;85.72;99273.66;5090638;28;20188;-57
2021/12/27 00:56:44;;;;;;;141.27;92.07;;;;;;;5.11;85.60;99299.09;5090777;28;20223;-57
2021/12/27 00:59:12;;;;;;;126.33;87.87;;;;;;;5.13;85.06;99297.50;5090712;28;20297;-57
2021/12/27 01:01:40;;;;;;;132.50;89.63;;;;;;;4.84;85.33;99242.16;5090615;28;20274;-57
2021/12/27 01:04:09;;;;;;;137.83;91.00;;;;;;;5.07;84.94;99261.66;5090672;28;20195;-57
2021/12/27 01:06:36;;;;;;;137.30;87.27;;;;;;;5.08;85.55;99265.06;5090354;28;20750;-57
2021/12/27 01:09:03;;;;;;;136.07;88.77;;;;;;;5.10;85.48;99284.66;5090691;28;20282;-57
2021/12/27 01:11:40;;;;;;;130.73;87.47;;;;;;;5.14;85.35;99277.97;5090610;28;20191;-57
2021/12/27 01:14:12;;;;;;;129.43;81.50;;;;;;;5.04;85.19;99276.81;5090402;28;20186;-57
2021/12/27 01:16:39;;;;;;;120.20;81.10;;;;;;;4.91;85.95;99287.38;5090167;28;20214;-57
2021/12/27 01:19:08;;;;;;;120.10;80.87;;;;;;;4.97;86.17;99277.41;5090279;28;20187;-57
2021/12/27 01:21:35;;;;;;;115.63;76.83;;;;;;;4.98;87.43;99289.31;5090500;28;20278;-57
2021/12/27 01:24:03;;;;;;;110.10;72.33;;;;;;;5.05;86.96;99288.75;5090177;28;20195;-57
2021/12/27 01:26:30;;;;;;;101.80;65.67;;;;;;;5.04;87.76;99274.25;5090655;28;20199;-57
2021/12/27 01:28:59;;;;;;;117.47;88.60;;;;;;;5.12;87.08;99270.28;5089391;28;21290;-57
2021/12/27 01:31:26;;;;;;;122.17;83.93;;;;;;;4.89;86.50;99219.44;5090439;28;20639;-57
2021/12/27 01:33:53;;;;;;;111.87;76.73;;;;;;;5.20;86.66;99276.50;5090137;28;20222;-60
2021/12/27 01:36:22;;;;;;;110.73;71.93;;;;;;;5.12;86.22;99295.75;5090552;28;20598;-57
2021/12/27 01:38:49;;;;;;;117.50;82.50;;;;;;;5.16;86.41;99268.72;5092696;28;20432;-57
2021/12/27 01:41:18;;;;;;;115.47;75.23;;;;;;;5.17;85.93;99266.22;5094233;28;20192;-57
2021/12/27 01:43:46;;;;;;;105.27;69.20;;;;;;;5.16;86.21;99272.16;5094240;28;20186;-57
2021/12/27 01:46:15;;;;;;;103.40;67.17;;;;;;;5.16;85.81;99263.63;5094240;28;20183;-57
2021/12/27 01:48:48;;;;;;;99.40;65.07;;;;;;;5.15;85.23;99265.31;5094138;28;20272;-57
2021/12/27 01:51:18;;;;;;;103.30;67.57;;;;;;;5.15;86.11;99260.22;5093980;28;20195;-57
2021/12/27 01:53:47;;;;;;;101.83;65.83;;;;;;;5.09;85.91;99252.38;5094260;28;20611;-57
2021/12/27 01:56:15;;;;;;;102.43;67.83;;;;;;;5.03;85.66;99238.56;5093911;28;20222;-57
2021/12/27 01:58:42;;;;;;;103.23;69.40;;;;;;;4.97;85.41;99244.31;5093991;28;20281;-57
2021/12/27 02:01:11;;;;;;;104.00;71.23;;;;;;;4.93;85.38;99252.66;5094315;28;20195;-57
2021/12/27 02:03:40;;;;;;;106.43;67.07;;;;;;;4.92;85.72;99265.31;5093922;28;20198;-57
2021/12/27 02:06:08;;;;;;;96.73;63.67;;;;;;;4.76;86.13;99249.53;5093964;28;20569;-57
2021/12/27 02:08:36;;;;;;;95.77;61.37;;;;;;;4.76;86.09;99238.47;5093457;28;20577;-57
2021/12/27 02:11:06;;;;;;;98.30;62.93;;;;;;;4.80;85.99;99239.47;5093697;28;20202;-59
2021/12/27 02:13:33;;;;;;;96.63;63.13;;;;;;;4.87;86.61;99249.03;5093758;28;20186;-58
2021/12/27 02:16:01;;;;;;;98.53;63.03;;;;;;;4.92;85.75;99244.97;5093557;28;20240;-58
2021/12/27 02:18:28;;;;;;;94.53;62.50;;;;;;;4.89;85.52;99255.91;5093890;28;20198;-58
2021/12/27 02:20:56;;;;;;;97.23;63.97;;;;;;;4.88;85.60;99246.56;5093791;28;20202;-59
2021/12/27 02:23:24;;;;;;;104.63;65.53;;;;;;;4.92;85.53;99244.97;5093329;28;20282;-58
2021/12/27 02:25:52;;;;;;;96.57;61.57;;;;;;;4.94;85.63;99230.63;5093329;28;20187;-58
2021/12/27 02:28:20;;;;;;;102.63;66.00;;;;;;;4.96;85.52;99237.50;5093681;28;20198;-58
2021/12/27 02:30:50;;;;;;;99.67;62.57;;;;;;;4.94;85.16;99235.72;5093501;28;20220;-58
2021/12/27 02:33:17;;;;;;;97.30;62.27;;;;;;;4.82;85.94;99213.25;5093286;28;20219;-58
2021/12/27 02:35:46;;;;;;;92.83;61.93;;;;;;;4.92;85.76;99224.59;5093208;28;20219;-58
2021/12/27 02:38:16;;;;;;;100.37;61.80;;;;;;;4.99;85.20;99218.91;5093142;28;20191;-58
2021/12/27 02:40:45;;;;;;;97.83;62.93;;;;;;;4.94;84.27;99223.88;5093412;28;20202;-58
2021/12/27 02:43:13;;;;;;;97.70;62.50;;;;;;;4.70;84.86;99215.38;5093136;28;20669;-58
2021/12/27 02:45:42;;;;;;;94.90;61.27;;;;;;;4.66;85.64;99222.03;5093007;28;20720;-58
2021/12/27 02:48:11;;;;;;;96.00;60.37;;;;;;;4.42;86.63;99228.78;5092458;28;20277;-58
2021/12/27 02:50:38;;;;;;;95.30;62.87;;;;;;;4.36;86.57;99236.22;5093082;28;20195;-58
2021/12/27 02:53:07;;;;;;;90.60;59.83;;;;;;;4.44;86.72;99226.31;5092901;28;20215;-58
2021/12/27 02:55:36;;;;;;;93.80;63.33;;;;;;;4.34;86.49;99222.56;5093043;28;20297;-58
2021/12/27 02:58:03;;;;;;;94.37;62.67;;;;;;;4.36;87.49;99230.25;5092804;28;20278;-58
2021/12/27 03:00:32;;;;;;;101.63;64.73;;;;;;;4.35;87.43;99226.84;5092712;28;20286;-58
2021/12/27 03:03:00;;;;;;;99.27;64.27;;;;;;;4.40;86.43;99227.88;5092681;28;20194;-58
2021/12/27 03:05:29;;;;;;;93.50;62.07;;;;;;;4.41;86.68;99232.16;5092790;28;20282;-58
2021/12/27 03:07:57;;;;;;;106.37;63.53;;;;;;;4.46;86.19;99230.63;5092563;28;20188;-58
2021/12/27 03:10:26;;;;;;;102.70;62.60;;;;;;;4.46;86.15;99222.13;5092794;28;20191;-58
2021/12/27 03:12:56;;;;;;;95.67;61.93;;;;;;;4.52;86.88;99209.66;5092682;28;20195;-58
2021/12/27 03:15:23;;;;;;;101.30;63.57;;;;;;;4.59;86.35;99219.22;5092844;28;20245;-58
2021/12/27 03:17:52;;;;;;;94.53;60.93;;;;;;;4.61;85.58;99217.59;5092618;28;20209;-58
2021/12/27 03:20:21;;;;;;;96.47;61.93;;;;;;;4.59;85.50;99220.09;5092478;28;20592;-58
2021/12/27 03:22:48;;;;;;;94.60;62.07;;;;;;;4.61;86.36;99233.75;5092388;28;20573;-58
2021/12/27 03:25:18;;;;;;;98.77;60.27;;;;;;;4.69;86.34;99226.38;5092214;28;20675;-58
2021/12/27 03:27:46;;;;;;;96.30;60.37;;;;;;;4.71;85.14;99227.28;5092325;28;20759;-58
2021/12/27 03:30:17;;;;;;;94.57;59.77;;;;;;;4.71;85.46;99224.75;5092254;28;20286;-58
2021/12/27 03:32:44;;;;;;;90.70;57.63;;;;;;;4.70;85.33;99228.97;5092120;28;20231;-58
2021/12/27 03:35:15;;;;;;;88.10;58.23;;;;;;;4.75;85.32;99232.53;5092480;28;20179;-57
2021/12/27 03:37:44;;;;;;;89.63;59.03;;;;;;;4.76;85.39;99231.72;5092251;28;20210;-57
2021/12/27 03:40:13;;;;;;;87.37;56.83;;;;;;;4.78;85.95;99230.09;5092041;28;20187;-57
2021/12/27 03:42:41;;;;;;;88.50;57.83;;;;;;;4.81;85.10;99225.94;5092297;28;20191;-57
2021/12/27 03:45:09;;;;;;;86.87;58.07;;;;;;;4.82;84.39;99217.47;5092290;28;20861;-57
2021/12/27 03:47:38;;;;;;;85.20;56.30;;;;;;;4.82;85.15;99218.34;5091892;28;20695;-57
2021/12/27 03:50:06;;;;;;;87.07;56.53;;;;;;;4.82;84.61;99236.16;5092126;28;20270;-57
2021/12/27 03:52:33;;;;;;;86.50;58.13;;;;;;;4.83;84.81;99240.44;5091727;28;20295;-57
2021/12/27 03:55:00;;;;;;;94.20;58.90;;;;;;;4.87;85.28;99237.19;5091877;28;20218;-57
2021/12/27 03:57:27;;;;;;;94.17;60.53;;;;;;;4.83;84.75;99230.25;5091716;28;20215;-57
2021/12/27 04:00:15;;;;;;;85.50;57.53;;;;;;;4.85;85.20;99243.91;5091025;28;20666;-57
2021/12/27 04:02:43;;;;;;;95.17;60.23;;;;;;;4.86;85.04;99245.66;5091800;28;20223;-57
2021/12/27 04:05:11;;;;;;;100.50;68.07;;;;;;;4.84;85.49;99248.91;5091097;28;20516;-57
2021/12/27 04:07:39;;;;;;;96.47;62.33;;;;;;;4.84;84.35;99239.59;5091419;28;20525;-57
2021/12/27 04:10:07;;;;;;;89.40;58.77;;;;;;;4.75;85.17;99231.69;5091489;28;20201;-57
2021/12/27 04:12:34;;;;;;;89.73;58.73;;;;;;;4.84;84.91;99229.44;5091372;28;20192;-57
2021/12/27 04:15:01;;;;;;;93.10;57.17;;;;;;;4.89;84.46;99232.16;5091396;28;20191;-57
2021/12/27 04:17:28;;;;;;;89.30;59.80;;;;;;;4.91;84.67;99235.63;5091093;28;20219;-57
2021/12/27 04:19:56;;;;;;;87.53;56.47;;;;;;;4.94;84.29;99239.13;5091234;28;20200;-57
2021/12/27 04:22:23;;;;;;;86.97;58.83;;;;;;;4.95;84.46;99232.34;5091197;28;20202;-57
2021/12/27 04:24:50;;;;;;;93.20;60.63;;;;;;;4.97;84.95;99236.66;5091241;28;20195;-57
2021/12/27 04:27:17;;;;;;;92.83;57.50;;;;;;;4.89;84.57;99224.53;5091141;28;20192;-57
2021/12/27 04:29:44;;;;;;;90.07;56.73;;;;;;;4.91;85.40;99233.06;5091374;28;20203;-57
2021/12/27 04:32:11;;;;;;;87.93;57.93;;;;;;;4.93;84.86;99223.78;5091034;28;20231;-57
2021/12/27 04:34:38;;;;;;;82.00;57.57;;;;;;;4.93;85.15;99228.88;5091115;28;20194;-57
2021/12/27 04:37:06;;;;;;;88.87;56.27;;;;;;;4.90;84.79;99221.13;5090729;28;20225;-57
2021/12/27 04:39:33;;;;;;;82.33;54.97;;;;;;;4.87;84.57;99214.28;5091138;28;20290;-57
2021/12/27 04:42:00;;;;;;;89.97;59.87;;;;;;;4.90;84.48;99216.91;5091008;28;20199;-57
2021/12/27 04:44:27;;;;;;;82.10;55.47;;;;;;;4.92;85.32;99209.31;5090747;28;20283;-57
2021/12/27 04:46:54;;;;;;;90.20;56.43;;;;;;;4.93;84.99;99216.16;5090867;28;20244;-57
2021/12/27 04:49:22;;;;;;;89.43;56.80;;;;;;;4.87;84.78;99208.31;5090715;28;20290;-57
2021/12/27 04:51:49;;;;;;;93.40;60.13;;;;;;;4.90;84.88;99205.88;5090599;28;20195;-57
2021/12/27 04:54:17;;;;;;;100.53;61.73;;;;;;;4.91;85.29;99205.94;5090579;28;20745;-57
2021/12/27 04:56:46;;;;;;;98.43;62.13;;;;;;;4.94;85.06;99205.16;5090627;28;20216;-57
2021/12/27 04:59:13;;;;;;;97.90;62.33;;;;;;;5.00;84.51;99215.56;5090664;28;20195;-57
2021/12/27 05:01:40;;;;;;;94.40;61.67;;;;;;;5.03;84.62;99213.97;5090491;28;20198;-57
2021/12/27 05:04:06;;;;;;;96.80;61.53;;;;;;;5.04;85.03;99209.75;5090575;28;20198;-57
2021/12/27 05:06:33;;;;;;;90.10;57.77;;;;;;;5.03;84.25;99213.09;5090880;28;20318;-57
2021/12/27 05:09:00;;;;;;;95.53;60.00;;;;;;;5.03;84.04;99210.53;5090295;28;20197;-57
2021/12/27 05:11:30;;;;;;;97.18;74.95;;;;;;;5.13;84.31;99216.03;5089414;28;20438;-57
2021/12/27 05:13:57;;;;;;;89.87;64.13;;;;;;;5.16;84.30;99220.34;5090465;28;20737;-57
2021/12/27 05:16:24;;;;;;;99.23;62.87;;;;;;;5.15;83.45;99224.56;5090440;28;20221;-57
2021/12/27 05:18:51;;;;;;;89.03;60.00;;;;;;;5.15;83.28;99231.34;5090067;28;20282;-57
2021/12/27 05:21:17;;;;;;;92.93;59.73;;;;;;;5.18;83.91;99232.31;5090432;28;20619;-57
2021/12/27 05:23:44;;;;;;;88.10;59.07;;;;;;;5.19;83.34;99228.94;5090508;28;20200;-57
2021/12/27 05:26:11;;;;;;;91.00;58.87;;;;;;;5.19;83.45;99231.47;5090290;28;20195;-56
2021/12/27 05:28:40;;;;;;;85.73;57.57;;;;;;;5.17;84.08;99238.22;5090195;28;20200;-57
2021/12/27 05:31:07;;;;;;;95.23;59.73;;;;;;;5.13;84.40;99238.06;5090197;28;20201;-57
2021/12/27 05:33:34;;;;;;;94.53;59.77;;;;;;;5.08;84.09;99235.34;5089290;28;20218;-57
2021/12/27 05:36:01;;;;;;;93.53;58.97;;;;;;;5.09;84.27;99237.09;5088801;28;20276;-57
2021/12/27 05:38:28;;;;;;;91.73;61.67;;;;;;;5.17;84.45;99243.31;5089009;28;20198;-57
2021/12/27 05:40:55;;;;;;;98.63;63.57;;;;;;;5.16;84.05;99238.16;5089233;28;20674;-58
2021/12/27 05:43:22;;;;;;;95.33;62.10;;;;;;;5.16;84.27;99244.13;5089731;28;20220;-57
2021/12/27 05:45:51;;;;;;;98.03;65.13;;;;;;;5.17;84.86;99238.22;5089650;28;20207;-57
2021/12/27 05:48:18;;;;;;;169.00;103.57;;;;;;;5.11;84.78;99243.09;5089501;28;20432;-57
2021/12/27 05:50:45;;;;;;;144.10;87.57;;;;;;;5.09;83.96;99234.53;5090317;28;20217;-57
2021/12/27 05:53:13;;;;;;;145.47;85.87;;;;;;;5.03;84.71;99236.88;5090111;28;20730;-57
2021/12/27 05:55:40;;;;;;;143.00;91.00;;;;;;;5.01;84.98;99240.19;5089979;28;20231;-57
2021/12/27 05:58:07;;;;;;;151.65;107.60;;;;;;;5.08;84.30;99234.50;5089536;28;20457;-57
2021/12/27 06:00:34;;;;;;;112.90;80.77;;;;;;;5.06;83.58;99251.38;5090106;28;20307;-57
2021/12/27 06:03:02;;;;;;;137.13;85.60;;;;;;;5.06;83.95;99242.06;5089443;28;20187;-57
2021/12/27 06:05:29;;;;;;;132.03;89.73;;;;;;;4.99;84.61;99239.28;5089503;28;20283;-57
2021/12/27 06:07:56;;;;;;;135.13;88.33;;;;;;;5.02;85.63;99241.94;5086971;28;20186;-57
2021/12/27 06:10:23;;;;;;;135.27;88.83;;;;;;;4.93;84.11;99234.84;5089977;28;20196;-57
2021/12/27 06:12:50;;;;;;;130.87;85.13;;;;;;;4.88;85.07;99235.50;5089916;28;20187;-57
2021/12/27 06:15:17;;;;;;;129.27;83.20;;;;;;;4.48;85.77;99193.41;5089912;28;20198;-57
2021/12/27 06:17:44;;;;;;;122.20;80.07;;;;;;;4.44;86.96;99229.72;5090168;28;20219;-57
2021/12/27 06:20:14;;;;;;;129.57;84.53;;;;;;;4.57;86.73;99229.34;5089800;28;20191;-57
2021/12/27 06:22:45;;;;;;;128.10;79.30;;;;;;;4.47;87.16;99236.59;5089465;28;20203;-57
2021/12/27 06:25:12;;;;;;;121.33;75.97;;;;;;;4.60;87.38;99236.22;5092932;28;20191;-57
2021/12/27 06:27:39;;;;;;;122.97;78.70;;;;;;;4.47;87.70;99218.78;5093479;28;20187;-57
2021/12/27 06:30:08;;;;;;;113.47;76.63;;;;;;;4.41;87.78;99224.53;5093407;28;20577;-57
2021/12/27 06:32:35;;;;;;;116.80;75.60;;;;;;;4.64;88.06;99223.66;5093308;28;20314;-57
2021/12/27 06:35:03;;;;;;;119.20;74.83;;;;;;;4.81;86.74;99231.03;5092970;28;20597;-57
2021/12/27 06:37:31;;;;;;;114.03;77.13;;;;;;;4.87;85.80;99234.63;5093111;28;20226;-57
2021/12/27 06:39:58;;;;;;;113.90;75.93;;;;;;;5.04;85.85;99240.28;5092822;28;20189;-57
2021/12/27 06:42:25;;;;;;;120.97;79.67;;;;;;;5.14;85.73;99240.66;5092911;28;20721;-57
2021/12/27 06:44:52;;;;;;;127.10;83.93;;;;;;;5.27;85.61;99237.69;5092979;28;20615;-57
2021/12/27 06:47:19;;;;;;;108.30;74.20;;;;;;;5.16;85.12;99233.06;5093080;28;20202;-58
2021/12/27 06:49:47;;;;;;;110.80;69.93;;;;;;;5.15;85.07;99228.78;5093075;28;20194;-57
2021/12/27 06:52:14;;;;;;;107.53;71.00;;;;;;;5.19;84.05;99231.47;5092792;28;20224;-57
2021/12/27 06:54:43;;;;;;;106.77;73.20;;;;;;;5.24;84.54;99242.72;5092700;28;20195;-57
2021/12/27 06:57:10;;;;;;;114.03;79.77;;;;;;;5.27;84.60;99242.78;5092550;28;20719;-57
2021/12/27 06:59:37;;;;;;;109.37;73.77;;;;;;;5.30;85.54;99232.69;5092576;28;20191;-57
2021/12/27 07:02:05;;;;;;;103.20;66.63;;;;;;;5.29;84.97;99228.44;5092837;28;20198;-57
2021/12/27 07:04:32;;;;;;;95.37;61.97;;;;;;;5.41;84.11;99222.88;5092457;28;20236;-57
2021/12/27 07:06:59;;;;;;;90.60;60.43;;;;;;;5.51;82.87;99218.94;5092571;28;20191;-57
2021/12/27 07:09:26;;;;;;;92.80;60.67;;;;;;;5.56;82.61;99222.47;5092438;28;20202;-57
2021/12/27 07:11:54;;;;;;;83.30;57.00;;;;;;;5.57;83.19;99220.00;5092161;28;20191;-57
2021/12/27 07:14:21;;;;;;;96.20;64.53;;;;;;;5.63;83.19;99232.91;5092760;28;20187;-57
2021/12/27 07:16:48;;;;;;;98.77;63.80;;;;;;;5.56;83.43;99231.00;5092057;28;20197;-57
2021/12/27 07:19:15;;;;;;;90.40;59.03;;;;;;;5.59;82.74;99215.81;5092389;28;20196;-57
2021/12/27 07:21:42;;;;;;;94.90;63.70;;;;;;;5.47;83.17;99222.19;5091957;28;20194;-57
2021/12/27 07:24:09;;;;;;;93.07;61.10;;;;;;;5.41;84.11;99220.34;5092373;28;20274;-57
2021/12/27 07:26:36;;;;;;;96.77;66.87;;;;;;;5.55;83.61;99233.50;5092148;28;20557;-57
2021/12/27 07:29:04;;;;;;;96.87;63.27;;;;;;;5.70;83.29;99236.53;5091293;28;20274;-57
2021/12/27 07:31:31;;;;;;;96.80;65.73;;;;;;;5.84;83.59;99245.47;5091122;28;20193;-57
2021/12/27 07:34:00;;;;;;;96.17;61.83;;;;;;;5.92;82.93;99244.91;5090618;28;20281;-57
2021/12/27 07:36:27;;;;;;;99.93;65.37;;;;;;;6.00;81.92;99241.72;5090076;28;20200;-57
2021/12/27 07:38:54;;;;;;;97.73;64.40;;;;;;;5.88;82.43;99227.78;5088419;28;20597;-57
2021/12/27 07:41:21;;;;;;;100.37;65.23;;;;;;;5.95;82.58;99231.38;5090850;28;20190;-57
2021/12/27 07:43:48;;;;;;;104.00;65.87;;;;;;;5.94;81.99;99233.06;5090867;28;20194;-57
2021/12/27 07:46:16;;;;;;;106.53;67.60;;;;;;;6.03;82.26;99235.03;5091447;28;20189;-57
2021/12/27 07:48:43;;;;;;;102.83;68.67;;;;;;;6.07;82.40;99233.44;5091382;28;20300;-57
2021/12/27 07:51:10;;;;;;;106.50;70.13;;;;;;;6.13;81.78;99237.03;5091484;28;20294;-57
2021/12/27 07:53:37;;;;;;;115.50;71.87;;;;;;;6.23;82.19;99225.41;5092923;28;20307;-57
2021/12/27 07:56:06;;;;;;;103.30;68.97;;;;;;;6.32;81.59;99230.75;5094453;28;20213;-57
2021/12/27 07:58:33;;;;;;;98.93;64.27;;;;;;;6.39;81.56;99246.31;5112601;28;20226;-57
2021/12/27 08:01:00;;;;;;;105.10;66.47;;;;;;;6.45;80.41;99243.06;5111619;28;20196;-57
2021/12/27 08:03:28;;;;;;;93.23;63.17;;;;;;;6.51;80.53;99228.78;5095099;28;20206;-59
2021/12/27 08:05:55;;;;;;;102.00;70.23;;;;;;;6.63;79.98;99233.38;5088230;28;20206;-57
2021/12/27 08:08:22;;;;;;;95.97;65.23;;;;;;;6.70;80.00;99214.84;5090663;28;20187;-59
2021/12/27 08:10:49;;;;;;;104.57;68.93;;;;;;;6.80;79.56;99221.06;5090790;28;20281;-58
2021/12/27 08:13:16;;;;;;;98.33;66.03;;;;;;;6.94;79.39;99230.81;5090518;28;20278;-57
2021/12/27 08:15:43;;;;;;;95.33;67.30;;;;;;;7.01;79.05;99219.91;5090793;28;20291;-58
2021/12/27 08:18:10;;;;;;;106.33;73.83;;;;;;;7.12;78.72;99218.50;5090372;28;20208;-59
2021/12/27 08:20:38;;;;;;;99.70;71.67;;;;;;;7.18;77.73;99222.03;5090529;28;20199;-58
2021/12/27 08:23:05;;;;;;;99.17;71.83;;;;;;;7.27;77.12;99202.69;5090152;28;20752;-57
2021/12/27 08:25:32;;;;;;;108.00;77.30;;;;;;;7.34;77.26;99211.34;5090161;28;20190;-57
2021/12/27 08:28:00;;;;;;;119.17;80.17;;;;;;;7.47;76.97;99219.34;5090508;28;20188;-58
2021/12/27 08:30:27;;;;;;;117.63;79.23;;;;;;;7.55;76.74;99217.84;5087676;28;20178;-58
2021/12/27 08:32:56;;;;;;;121.27;85.60;;;;;;;7.62;76.46;99223.97;5092510;28;20241;-58
2021/12/27 08:35:23;;;;;;;119.00;80.63;;;;;;;7.62;75.77;99204.41;5089471;28;20646;-58
2021/12/27 08:37:52;;;;;;;123.83;85.17;;;;;;;7.66;76.08;99213.84;5087651;28;20217;-58
2021/12/27 08:40:19;;;;;;;125.27;84.67;;;;;;;7.73;75.92;99231.06;5090185;28;20187;-58
2021/12/27 08:42:46;;;;;;;127.43;89.07;;;;;;;7.59;75.29;99181.31;5090042;28;20192;-58
2021/12/27 08:45:13;;;;;;;122.57;86.60;;;;;;;7.79;75.47;99214.13;5090200;28;20188;-58
2021/12/27 08:47:41;;;;;;;126.53;90.30;;;;;;;7.87;75.17;99220.28;5089530;28;20212;-59
2021/12/27 08:50:09;;;;;;;137.47;93.10;;;;;;;7.87;75.66;99210.06;5101478;28;20193;-58
2021/12/27 08:52:36;;;;;;;121.25;90.60;;;;;;;7.98;75.37;99208.59;5092165;28;20523;-58
2021/12/27 08:55:05;;;;;;;117.77;83.43;;;;;;;8.09;74.66;99202.03;5089775;28;20193;-58
2021/12/27 08:57:33;;;;;;;129.73;92.00;;;;;;;8.05;74.67;99189.97;5089375;28;20704;-58
2021/12/27 09:00:01;;;;;;;122.73;86.53;;;;;;;7.91;74.67;99193.97;5089186;28;20273;-58
2021/12/27 09:02:28;;;;;;;121.20;87.07;;;;;;;8.03;75.23;99196.78;5089415;28;20279;-58
2021/12/27 09:04:55;;;;;;;124.60;87.77;;;;;;;8.14;75.12;99205.53;5088286;28;20308;-58
2021/12/27 09:07:22;;;;;;;123.60;89.13;;;;;;;8.11;74.64;99206.34;5089763;28;20182;-58
2021/12/27 09:09:49;;;;;;;119.90;83.33;;;;;;;8.06;75.12;99201.94;5089062;28;20272;-57
2021/12/27 09:12:18;;;;;;;120.00;82.30;;;;;;;7.79;75.78;99181.75;5086582;28;20220;-58
2021/12/27 09:14:45;;;;;;;113.57;78.40;;;;;;;7.63;76.65;99192.47;5089636;28;20192;-57
2021/12/27 09:17:12;;;;;;;111.17;80.87;;;;;;;7.71;77.19;99194.38;5089941;28;20183;-58
2021/12/27 09:19:39;;;;;;;106.47;78.60;;;;;;;7.79;76.64;99184.31;5090122;28;20216;-59
2021/12/27 09:22:06;;;;;;;115.33;79.17;;;;;;;7.69;77.39;99201.13;5090517;28;20182;-59
2021/12/27 09:24:33;;;;;;;115.50;77.00;;;;;;;7.73;77.61;99187.59;5089164;28;20196;-58
2021/12/27 09:27:00;;;;;;;115.10;81.73;;;;;;;7.77;77.39;99185.13;5089636;28;20666;-58
2021/12/27 09:29:28;;;;;;;121.50;83.77;;;;;;;7.90;77.26;99179.44;5089322;28;20206;-58
2021/12/27 09:31:55;;;;;;;113.73;79.70;;;;;;;7.87;77.12;99187.91;5089062;28;20268;-57
2021/12/27 09:34:22;;;;;;;110.33;79.67;;;;;;;7.98;76.71;99183.88;5089016;28;20679;-57
2021/12/27 09:36:49;;;;;;;122.60;91.03;;;;;;;8.08;76.39;99179.81;5091237;28;20444;-57
2021/12/27 09:39:16;;;;;;;112.40;80.77;;;;;;;8.16;75.82;99179.13;5086167;28;20213;-57
2021/12/27 09:41:43;;;;;;;119.47;82.67;;;;;;;8.17;75.77;99173.22;5089140;28;20276;-57
2021/12/27 09:44:10;;;;;;;125.13;83.83;;;;;;;8.24;75.87;99176.75;5089306;28;20188;-58
2021/12/27 09:46:39;;;;;;;110.83;81.07;;;;;;;8.28;75.72;99168.34;5089206;28;20288;-58
2021/12/27 09:49:08;;;;;;;115.40;84.97;;;;;;;8.35;76.15;99171.88;5089104;28;20190;-57
2021/12/27 09:51:37;;;;;;;142.67;91.90;;;;;;;8.39;75.46;99174.53;5088514;28;20193;-57
2021/12/27 09:54:04;;;;;;;119.10;84.07;;;;;;;8.39;75.19;99166.84;5088850;28;20186;-57
2021/12/27 09:56:31;;;;;;;123.20;86.20;;;;;;;8.36;75.43;99169.34;5087704;28;20424;-58
2021/12/27 09:58:58;;;;;;;125.00;84.37;;;;;;;8.25;75.97;99152.88;5089816;28;20228;-57
2021/12/27 10:01:25;;;;;;;124.47;86.77;;;;;;;8.29;76.09;99145.31;5094117;28;20193;-57
2021/12/27 10:03:56;;;;;;;127.97;89.80;;;;;;;8.28;76.00;99137.63;5093234;28;20196;-57
2021/12/27 10:06:26;;;;;;;135.07;89.93;;;;;;;8.30;75.89;99159.84;5093043;28;20299;-57
2021/12/27 10:08:55;;;;;;;128.93;87.43;;;;;;;8.22;76.51;99157.94;5093014;28;20220;-57
2021/12/27 10:11:27;;;;;;;134.87;93.90;;;;;;;8.27;77.04;99146.13;5093089;28;20282;-57
2021/12/27 10:14:07;;;;;;;124.23;87.07;;;;;;;7.96;77.54;99118.19;5093235;28;20679;-58
2021/12/27 10:16:36;;;;;;;96.40;70.80;;;;;;;8.22;77.03;99135.78;5093214;28;20285;-57
2021/12/27 10:19:10;;;;;;;96.17;68.77;;;;;;;8.27;76.45;99135.88;5093057;28;20294;-57
2021/12/27 10:21:41;;;;;;;89.00;67.60;;;;;;;8.35;76.01;99136.06;5093254;28;20194;-57
2021/12/27 10:24:10;;;;;;;97.17;69.07;;;;;;;8.35;75.97;99129.22;5093099;28;20186;-59
2021/12/27 10:26:38;;;;;;;99.47;68.70;;;;;;;8.41;75.96;99133.59;5092992;28;20202;-58
2021/12/27 10:29:10;;;;;;;94.83;70.73;;;;;;;8.49;75.86;99117.53;5092765;28;20285;-59
2021/12/27 10:31:59;;;;;;;87.80;62.60;;;;;;;8.55;75.29;99116.78;5093019;28;20277;-57
2021/12/27 10:34:30;;;;;;;84.87;61.13;;;;;;;8.54;75.19;99113.34;5092961;28;20628;-57
2021/12/27 10:37:14;;;;;;;95.47;65.17;;;;;;;8.51;75.65;99115.91;5092797;28;20284;-58
2021/12/27 10:39:47;;;;;;;84.33;67.50;;;;;;;8.54;75.79;99108.25;5091724;28;20455;-59
2021/12/27 10:42:16;;;;;;;78.13;58.57;;;;;;;8.60;74.88;99113.47;5093056;28;20586;-58
2021/12/27 10:44:43;;;;;;;72.30;53.43;;;;;;;8.60;74.84;99108.34;5092569;28;20292;-57
2021/12/27 10:47:34;;;;;;;74.87;53.40;;;;;;;8.60;75.07;99112.59;5092706;28;20225;-58
2021/12/27 10:50:08;;;;;;;82.10;56.83;;;;;;;8.54;74.89;99095.44;5092444;28;20289;-58
2021/12/27 10:52:45;;;;;;;77.07;54.67;;;;;;;8.46;75.43;99094.44;5092821;28;20186;-58
2021/12/27 10:55:13;;;;;;;82.63;56.93;;;;;;;8.48;75.63;99086.81;5092481;28;20201;-58
2021/12/27 10:57:40;;;;;;;76.33;56.63;;;;;;;8.47;75.35;99085.94;5092501;28;20197;-58
2021/12/27 11:00:28;;;;;;;81.93;60.33;;;;;;;8.49;75.68;99084.25;5092418;28;20611;-58
2021/12/27 11:02:57;;;;;;;94.88;69.75;;;;;;;8.55;75.91;99088.63;5091676;28;20958;-58
2021/12/27 11:05:27;;;;;;;85.87;61.60;;;;;;;8.58;75.44;99081.88;5092553;28;20204;-58
2021/12/27 11:07:59;;;;;;;91.40;62.33;;;;;;;8.54;75.33;99063.88;5092314;28;20195;-58
2021/12/27 11:10:26;;;;;;;81.23;58.63;;;;;;;8.56;75.53;99083.53;5091762;28;20183;-58
2021/12/27 11:12:53;;;;;;;71.93;52.57;;;;;;;8.51;75.61;99074.06;5092088;28;20280;-59
2021/12/27 11:15:21;;;;;;;70.40;50.33;;;;;;;8.51;75.90;99069.81;5092122;28;20182;-58
2021/12/27 11:17:48;;;;;;;66.37;47.40;;;;;;;8.49;76.11;99053.53;5091910;28;20191;-58
2021/12/27 11:20:15;;;;;;;63.47;46.33;;;;;;;8.53;75.90;99063.00;5091457;28;20226;-59
2021/12/27 11:22:45;;;;;;;62.03;46.83;;;;;;;8.64;75.88;99056.38;5091715;28;20269;-59
2021/12/27 11:25:27;;;;;;;64.40;48.33;;;;;;;8.66;75.43;99070.06;5091642;28;20202;-59